Pagrindinis puslapis
METAR-TAF:

METAR-TAF

Oro uostai :

Tajuanas, Kinija

platuma: 37-47N, ilguma: 112-33E, Aukštis: 779 m

Dabartinis oras

Ataskaita buvo paskelbta 31 minutes, ne 17:00 UTC
Vėjas 2 kt nuo kintamojo kryptimis
Temperatūra 5°C
Drėgmė 87%
Slėgis 1022 hPa
Matomumas: 5000 m
rūkana

METAR: ZBYN 201700Z VRB01MPS 5000 BR NSC 05/03 Q1022 NOSIG

Laikas: 01:31 (17:31 UTC)

Prognozė

Ataskaita buvo paskelbta 8 valandos ir 25 minutes, ne 09:06 UTC
Prognozė galioja nuo 20 metu 12 UTC su 21 metu 12 UTC
Vėjas 6 kt iš Rytų
Matomumas: 6000 m

TAF: ZBYN 200906Z 2012/2112 09003MPS 6000 NSC TX20/2107Z TN03/2022Z

Orai ataskaitas ir orų prognozės (METAR, TAF).

turimą stotys yra geltonos ir raudonos taškus žemėlapyje.

Perkelti pele per norėdami pamatyti stoties vardą.

Tada spustelėkite, norėdami matyti oro stebėjimo ir prognozės.

Norėdami pakeisti žemėlapį: spustelėkite ant žalios mygtukų su juodo kryžiaus žemyn,; žalią mygtuką su brūkšneliu, jei norite nutolinti; arba žalių rodyklių gretimoms žemėlapius.


METAR-TAF: